Aviation Digital Data Service (ADDS)

Output produced by METARs form (2055 UTC 29 May 2017)
found at http://www.aviationweather.gov/adds/metars/
 
TAF VLLB 291700Z 2918/3018 09004KT 9999 SCT020 FEW060 
     TEMPO 2918/3000 4000 BR SCT017 SCT050
       
TAF VLPS 291700Z 2918/3018 18004KT 9999 SCT020 SCT050 FEW200
       
TAF VLSK 291700Z 2918/3018 22004KT 7000 SCT020 SCT100 
     TEMPO 2918/3000 3000 BR SCT040 BKN100
       
VLVT 291630Z 00000KT 4000 BR SCT040 28/23 Q1008 NOSIG
TAF VLVT 291700Z 2918/3018 14004KT 7000 SCT020 SCT050 
     TEMPO 2918/3000 4000 BR BKN040
       
TAF VLLB 291700Z 2918/3018 09004KT 9999 SCT020 FEW060 
     TEMPO 2918/3000 4000 BR SCT017 SCT050
       
TAF VLLN 291700Z 2918/3018 16004KT 7000 SCT020 FEW100 
     TEMPO 2918/3000 3000 BR SCT010 BKN100
       
TAF VLPS 291700Z 2918/3018 18004KT 9999 SCT020 SCT050 FEW200
       
TAF VLSK 291700Z 2918/3018 22004KT 7000 SCT020 SCT100 
     TEMPO 2918/3000 3000 BR SCT040 BKN100
       
VLVT 291630Z 00000KT 4000 BR SCT040 28/23 Q1008 NOSIG
TAF VLVT 291700Z 2918/3018 14004KT 7000 SCT020 SCT050 
     TEMPO 2918/3000 4000 BR BKN040